createdAt,value
2023-01-05T00:01:45.342Z,1.25
2023-01-05T00:04:13.446Z,0.30
2023-01-05T00:06:41.515Z,0.30
2023-01-05T00:09:11.304Z,0.85
2023-01-05T00:11:57.872Z,0.30
2023-01-05T00:14:45.100Z,0.43
2023-01-05T00:17:31.998Z,0.30
2023-01-05T00:20:29.113Z,0.28
2023-01-05T00:22:57.961Z,1.17
2023-01-05T00:25:27.336Z,0.32
2023-01-05T00:27:58.468Z,0.22
2023-01-05T00:30:29.500Z,0.30
2023-01-05T00:32:57.190Z,0.98
2023-01-05T00:35:25.084Z,0.30
2023-01-05T00:37:52.799Z,0.38
2023-01-05T00:40:22.573Z,0.40
2023-01-05T00:42:50.553Z,0.25
2023-01-05T00:45:21.860Z,0.30
2023-01-05T00:47:50.175Z,0.40
2023-01-05T00:50:19.048Z,0.20
2023-01-05T00:52:47.295Z,2.28
2023-01-05T00:55:15.370Z,0.20
2023-01-05T00:57:43.435Z,0.47
2023-01-05T01:00:15.955Z,1.67
2023-01-05T01:02:45.642Z,0.32
2023-01-05T01:05:13.739Z,0.45
2023-01-05T01:07:41.701Z,0.90
2023-01-05T01:10:11.673Z,0.40
2023-01-05T01:12:39.358Z,1.48
2023-01-05T01:15:08.605Z,1.60
2023-01-05T01:17:36.416Z,0.30
2023-01-05T01:20:06.999Z,1.05
2023-01-05T01:22:34.675Z,0.63
2023-01-05T01:25:02.360Z,0.32
2023-01-05T01:27:31.018Z,0.30
2023-01-05T01:29:58.804Z,0.90
2023-01-05T01:32:26.518Z,1.20
2023-01-05T01:34:55.113Z,0.30
2023-01-05T01:37:24.336Z,0.50
2023-01-05T01:39:54.791Z,0.47
2023-01-05T01:42:23.378Z,1.00
2023-01-05T01:44:56.439Z,0.40
2023-01-05T01:47:35.168Z,0.43
2023-01-05T01:50:06.814Z,0.90
2023-01-05T01:52:36.883Z,0.47
2023-01-05T01:55:06.837Z,0.95
2023-01-05T01:57:35.949Z,0.60
2023-01-05T02:00:07.808Z,1.65
2023-01-05T02:02:46.080Z,0.90
2023-01-05T02:05:18.074Z,0.60
2023-01-05T02:07:48.915Z,1.33
2023-01-05T02:10:19.701Z,2.75
2023-01-05T02:13:00.836Z,3.72
2023-01-05T02:15:40.357Z,0.43
2023-01-05T02:18:29.434Z,0.50
2023-01-05T02:21:19.867Z,2.25
2023-01-05T02:24:18.843Z,0.77
2023-01-05T02:27:28.359Z,1.85
2023-01-05T02:30:32.286Z,1.88
2023-01-05T02:33:12.259Z,1.27
2023-01-05T02:35:48.748Z,1.17
2023-01-05T02:38:24.663Z,0.75
2023-01-05T02:40:58.228Z,0.40
2023-01-05T02:43:28.100Z,0.63
2023-01-05T02:45:56.241Z,0.50
2023-01-05T02:48:25.955Z,2.42
2023-01-05T02:51:01.089Z,0.75
2023-01-05T02:53:33.891Z,1.40
2023-01-05T02:56:06.955Z,1.52
2023-01-05T02:58:42.717Z,3.47
2023-01-05T03:01:17.311Z,1.75
2023-01-05T03:03:53.830Z,0.98
2023-01-05T03:06:26.379Z,0.70
2023-01-05T03:08:57.750Z,0.93
2023-01-05T03:11:49.774Z,1.73
2023-01-05T03:14:24.713Z,1.85
2023-01-05T03:16:56.939Z,3.75
2023-01-05T03:19:40.274Z,1.90
2023-01-05T03:22:34.835Z,2.95
2023-01-05T03:25:23.038Z,3.63
2023-01-05T03:28:08.768Z,5.28
2023-01-05T03:31:03.842Z,2.97
2023-01-05T03:33:59.341Z,4.53
2023-01-05T03:36:34.045Z,2.35
2023-01-05T03:39:04.327Z,2.40
2023-01-05T03:41:36.159Z,1.33
2023-01-05T03:44:04.043Z,2.78
2023-01-05T03:46:36.314Z,2.25
2023-01-05T03:49:04.842Z,2.08
2023-01-05T03:51:41.254Z,4.53
2023-01-05T03:54:10.409Z,1.92
2023-01-05T03:56:39.307Z,1.38
2023-01-05T03:59:07.966Z,2.05
2023-01-05T04:01:39.081Z,1.38
2023-01-05T04:04:07.110Z,1.67
2023-01-05T04:06:36.510Z,0.70
2023-01-05T04:09:05.070Z,1.13
2023-01-05T04:11:34.078Z,5.47
2023-01-05T04:14:05.869Z,5.13
2023-01-05T04:16:35.595Z,6.22
2023-01-05T04:19:12.296Z,5.32
2023-01-05T04:21:41.545Z,10.07
2023-01-05T04:24:11.055Z,10.02
2023-01-05T04:26:42.194Z,8.80
2023-01-05T04:29:11.537Z,8.15
2023-01-05T04:31:40.396Z,9.13
2023-01-05T04:34:09.100Z,13.45
2023-01-05T04:36:38.537Z,12.82
2023-01-05T04:39:08.327Z,12.82
2023-01-05T04:41:38.797Z,9.30
2023-01-05T04:44:07.116Z,11.23
2023-01-05T04:46:35.771Z,11.40
2023-01-05T04:49:04.832Z,12.18
2023-01-05T04:51:33.118Z,12.82
2023-01-05T04:54:00.803Z,9.98
2023-01-05T04:56:29.939Z,12.63
2023-01-05T04:58:57.596Z,10.00
2023-01-05T05:01:26.330Z,8.70
2023-01-05T05:03:56.779Z,8.40
2023-01-05T05:06:26.284Z,13.32
2023-01-05T05:08:56.260Z,14.00
2023-01-05T05:11:26.449Z,8.73
2023-01-05T05:13:55.621Z,14.43
2023-01-05T05:16:24.582Z,9.57
2023-01-05T05:18:53.803Z,12.30
2023-01-05T05:21:25.784Z,8.43
2023-01-05T05:23:53.514Z,9.10
2023-01-05T05:26:21.487Z,7.93
2023-01-05T05:28:50.523Z,12.02
2023-01-05T05:31:19.647Z,11.98
2023-01-05T05:33:47.377Z,11.00
2023-01-05T05:36:17.875Z,12.32
2023-01-05T05:38:45.661Z,12.90
2023-01-05T05:41:13.370Z,12.13
2023-01-05T05:43:41.102Z,14.85
2023-01-05T05:46:08.848Z,13.10
2023-01-05T05:48:38.027Z,12.48
2023-01-05T05:51:06.135Z,12.13
2023-01-05T05:53:34.027Z,13.38
2023-01-05T05:56:01.704Z,12.30
2023-01-05T05:58:29.465Z,12.00
2023-01-05T06:00:58.791Z,13.55
2023-01-05T06:03:26.634Z,9.88
2023-01-05T06:05:55.745Z,9.98
2023-01-05T06:08:24.061Z,13.35
2023-01-05T06:10:52.143Z,10.48
2023-01-05T06:13:19.979Z,11.05
2023-01-05T06:15:47.760Z,14.75
2023-01-05T06:18:15.520Z,11.32
2023-01-05T06:20:43.589Z,7.93
2023-01-05T06:23:12.808Z,10.70
2023-01-05T06:25:40.522Z,10.38
2023-01-05T06:28:08.188Z,9.98
2023-01-05T06:30:35.930Z,9.70
2023-01-05T06:33:03.709Z,9.50
2023-01-05T06:35:31.492Z,11.65
2023-01-05T06:37:59.201Z,14.30
2023-01-05T06:40:28.309Z,9.75
2023-01-05T06:42:56.292Z,8.43
2023-01-05T06:45:24.063Z,12.07
2023-01-05T06:47:51.894Z,7.97
2023-01-05T06:50:19.743Z,8.68
2023-01-05T06:52:47.438Z,8.82
2023-01-05T06:55:15.827Z,12.27
2023-01-05T06:57:44.906Z,10.50
2023-01-05T07:00:13.764Z,10.80
2023-01-05T07:02:41.683Z,10.73
2023-01-05T07:05:10.723Z,10.73
2023-01-05T07:07:38.880Z,13.20
2023-01-05T07:10:07.999Z,15.77
2023-01-05T07:12:35.919Z,10.63
2023-01-05T07:15:06.736Z,14.68
2023-01-05T07:17:34.526Z,10.13
2023-01-05T07:20:02.240Z,7.50
2023-01-05T07:22:31.022Z,11.07
2023-01-05T07:24:59.051Z,14.80
2023-01-05T07:27:27.156Z,8.15
2023-01-05T07:29:54.731Z,8.75
2023-01-05T07:32:23.999Z,17.15
2023-01-05T07:34:55.842Z,13.18
2023-01-05T07:37:24.585Z,15.27
2023-01-05T07:39:52.332Z,13.40
2023-01-05T07:42:20.080Z,15.85
2023-01-05T07:44:49.474Z,10.82
2023-01-05T07:47:17.234Z,9.88
2023-01-05T07:49:46.455Z,15.25
2023-01-05T07:52:14.171Z,10.07
2023-01-05T07:54:41.856Z,13.32
2023-01-05T07:57:09.756Z,8.18
2023-01-05T07:59:37.537Z,9.40
2023-01-05T08:02:05.253Z,12.27
2023-01-05T08:04:33.074Z,11.18
2023-01-05T08:07:02.708Z,9.93
2023-01-05T08:09:48.413Z,7.78
2023-01-05T08:12:16.298Z,10.93
2023-01-05T08:14:44.048Z,11.68
2023-01-05T08:17:11.755Z,12.18
2023-01-05T08:19:39.465Z,9.25
2023-01-05T08:22:08.514Z,14.57
2023-01-05T08:24:36.463Z,9.80
2023-01-05T08:27:04.480Z,11.63
2023-01-05T08:29:32.398Z,11.02
2023-01-05T08:32:00.143Z,12.18
2023-01-05T08:34:34.298Z,10.48
2023-01-05T08:37:02.581Z,10.13
2023-01-05T08:39:31.693Z,7.75
2023-01-05T08:42:02.785Z,12.13
2023-01-05T08:44:30.763Z,15.15
2023-01-05T08:46:58.473Z,7.68
2023-01-05T08:49:26.200Z,8.68
2023-01-05T08:51:53.942Z,9.50
2023-01-05T08:54:21.664Z,8.75
2023-01-05T08:56:51.014Z,11.95
2023-01-05T08:59:18.691Z,12.13
2023-01-05T09:01:46.704Z,14.05
2023-01-05T09:04:14.489Z,12.35
2023-01-05T09:06:42.321Z,11.57
2023-01-05T09:09:10.403Z,13.48
2023-01-05T09:11:38.105Z,16.92
2023-01-05T09:14:07.144Z,9.32
2023-01-05T09:17:05.923Z,11.45
2023-01-05T09:19:23.756Z,16.80
2023-01-05T09:21:52.149Z,11.50
2023-01-05T09:24:20.287Z,13.98
2023-01-05T09:26:48.039Z,12.57
2023-01-05T09:29:17.633Z,15.18
2023-01-05T09:31:45.399Z,12.15
2023-01-05T09:34:13.111Z,12.98
2023-01-05T09:36:40.825Z,15.40
2023-01-05T09:39:08.694Z,17.05
2023-01-05T09:41:39.645Z,14.32
2023-01-05T09:44:16.010Z,12.07
2023-01-05T09:46:48.164Z,9.73
2023-01-05T09:49:19.738Z,13.45
2023-01-05T09:51:47.544Z,14.35
2023-01-05T09:54:18.377Z,13.50
2023-01-05T09:59:39.027Z,15.32
2023-01-05T10:02:18.934Z,12.23
2023-01-05T10:04:48.755Z,12.15
2023-01-05T10:07:27.110Z,16.88
2023-01-05T10:09:59.309Z,11.95
2023-01-05T10:12:51.054Z,17.25
2023-01-05T10:15:21.819Z,11.93
2023-01-05T10:17:51.101Z,13.40
2023-01-05T10:20:25.816Z,15.75
2023-01-05T10:23:06.068Z,9.43
2023-01-05T10:25:40.817Z,13.15
2023-01-05T10:28:22.799Z,17.80
2023-01-05T10:30:58.814Z,16.95
2023-01-05T10:33:51.857Z,14.70
2023-01-05T10:39:35.570Z,13.35
2023-01-05T10:42:09.091Z,15.00
2023-01-05T10:44:52.627Z,17.15
2023-01-05T10:47:22.560Z,13.18
2023-01-05T10:49:51.786Z,15.80
2023-01-05T10:52:21.058Z,14.20
2023-01-05T10:54:51.371Z,14.35
2023-01-05T10:57:36.364Z,17.02
2023-01-05T11:00:09.780Z,18.92
2023-01-05T11:02:40.320Z,14.02
2023-01-05T11:05:25.283Z,13.40
2023-01-05T11:07:55.805Z,14.50
2023-01-05T11:10:28.918Z,13.50
2023-01-05T11:13:03.129Z,12.57
2023-01-05T11:15:33.508Z,12.35
2023-01-05T11:18:01.376Z,14.77
2023-01-05T11:20:30.600Z,15.23
2023-01-05T11:22:58.287Z,14.55
2023-01-05T11:25:29.291Z,13.15
2023-01-05T11:28:20.951Z,14.43
2023-01-05T11:31:01.255Z,15.70
2023-01-05T11:33:31.087Z,16.25
2023-01-05T11:36:01.477Z,15.07
2023-01-05T11:38:31.344Z,14.50
2023-01-05T11:41:01.556Z,15.05
2023-01-05T11:43:33.908Z,18.55
2023-01-05T11:46:04.571Z,14.30
2023-01-05T11:48:36.698Z,18.02
2023-01-05T11:51:06.222Z,17.50
2023-01-05T11:53:39.026Z,12.75
2023-01-05T11:56:19.310Z,15.88
2023-01-05T11:58:48.246Z,18.40
2023-01-05T12:01:58.509Z,13.88
2023-01-05T12:04:56.242Z,15.77
2023-01-05T12:07:33.991Z,13.50
2023-01-05T12:10:16.743Z,21.08
2023-01-05T12:12:59.139Z,16.27
2023-01-05T12:15:46.281Z,14.52
2023-01-05T12:18:41.057Z,13.98
2023-01-05T12:21:14.926Z,14.15
2023-01-05T12:23:52.630Z,15.25
2023-01-05T12:26:26.025Z,15.60
2023-01-05T12:35:42.495Z,17.33
2023-01-05T12:38:43.528Z,14.77
2023-01-05T12:41:43.852Z,12.55
2023-01-05T12:44:42.015Z,13.77
2023-01-05T12:47:23.639Z,15.98
2023-01-05T12:49:56.687Z,18.75
2023-01-05T12:52:29.112Z,19.27
2023-01-05T12:55:03.397Z,15.30
2023-01-05T12:57:35.622Z,17.85
2023-01-05T13:00:11.829Z,16.60
2023-01-05T13:02:44.324Z,14.60
2023-01-05T13:05:19.533Z,14.95
2023-01-05T13:07:53.999Z,14.40
2023-01-05T13:10:26.945Z,12.63
2023-01-05T13:13:02.029Z,16.98
2023-01-05T13:15:40.156Z,12.05
2023-01-05T13:18:12.277Z,14.80
2023-01-05T13:20:44.132Z,15.82
2023-01-05T13:23:17.289Z,18.83
2023-01-05T13:25:52.255Z,17.35
2023-01-05T13:28:24.567Z,15.63
2023-01-05T13:31:09.634Z,16.10
2023-01-05T13:33:55.224Z,14.60
2023-01-05T13:36:38.055Z,14.85
2023-01-05T13:39:23.235Z,16.13
2023-01-05T13:42:13.462Z,17.02
2023-01-05T13:45:23.684Z,15.50
2023-01-05T13:51:13.432Z,16.15
2023-01-05T13:53:43.754Z,13.68
2023-01-05T13:56:18.561Z,15.60
2023-01-05T13:58:50.322Z,11.60
2023-01-05T14:01:21.626Z,13.40
2023-01-05T14:03:52.798Z,16.63
2023-01-05T14:06:24.308Z,16.33
2023-01-05T14:08:56.949Z,12.63
2023-01-05T14:11:25.943Z,17.13
2023-01-05T14:13:57.439Z,16.63
2023-01-05T14:16:52.111Z,18.08
2023-01-05T14:19:26.334Z,17.45
2023-01-05T14:22:25.711Z,17.83
2023-01-05T14:24:54.997Z,14.13
2023-01-05T14:27:24.704Z,14.00
2023-01-05T14:30:30.593Z,14.50
2023-01-05T14:33:07.057Z,13.85
2023-01-05T14:35:37.440Z,13.55
2023-01-05T14:38:08.549Z,13.52
2023-01-05T14:40:39.755Z,17.17
2023-01-05T14:43:22.001Z,15.27
2023-01-05T14:46:01.112Z,15.07
2023-01-05T14:48:33.424Z,15.52
2023-01-05T14:51:20.069Z,14.63
2023-01-05T14:53:49.674Z,15.50
2023-01-05T14:56:21.118Z,15.73
2023-01-05T14:58:59.721Z,14.85
2023-01-05T15:01:31.954Z,14.68
2023-01-05T15:04:06.275Z,16.27
2023-01-05T15:06:48.715Z,11.85
2023-01-05T15:09:32.880Z,18.25
2023-01-05T15:12:28.577Z,18.10
2023-01-05T15:15:25.401Z,16.13
2023-01-05T15:18:08.455Z,15.18
2023-01-05T15:21:09.592Z,11.35
2023-01-05T15:24:18.790Z,14.10
2023-01-05T15:27:03.591Z,15.88
2023-01-05T15:30:04.459Z,16.33
2023-01-05T15:32:35.749Z,13.45
2023-01-05T15:35:11.961Z,13.75
2023-01-05T15:37:43.130Z,14.27
2023-01-05T15:40:29.600Z,14.90
2023-01-05T15:43:00.422Z,12.45
2023-01-05T15:45:30.724Z,15.02
2023-01-05T15:48:02.689Z,14.52
2023-01-05T15:50:44.577Z,16.83
2023-01-05T15:53:25.299Z,16.98
2023-01-05T15:55:53.414Z,16.80
2023-01-05T15:58:22.963Z,17.10
2023-01-05T16:01:06.309Z,17.65
2023-01-05T16:03:35.816Z,17.88
2023-01-05T16:06:06.635Z,12.02
2023-01-05T16:08:40.907Z,13.13
2023-01-05T16:11:10.998Z,18.80
2023-01-05T16:13:41.992Z,22.00
2023-01-05T16:16:24.836Z,13.77
2023-01-05T16:19:07.152Z,16.85
2023-01-05T16:21:39.617Z,14.00
2023-01-05T16:24:19.515Z,12.77
2023-01-05T16:26:47.345Z,13.07
2023-01-05T16:29:32.279Z,22.08
2023-01-05T16:32:00.331Z,17.10
2023-01-05T16:34:31.216Z,13.02
2023-01-05T16:37:05.235Z,13.48
2023-01-05T16:39:38.424Z,11.68
2023-01-05T16:42:31.790Z,16.80
2023-01-05T16:45:00.555Z,15.88
2023-01-05T16:47:37.573Z,14.38
2023-01-05T16:51:00.589Z,15.75
2023-01-05T16:53:28.276Z,18.58
2023-01-05T16:56:00.693Z,18.00
2023-01-05T16:58:38.213Z,13.88
2023-01-05T17:01:24.650Z,14.90
2023-01-05T17:03:52.868Z,16.63
2023-01-05T17:06:28.223Z,14.30
2023-01-05T17:08:58.371Z,17.33
2023-01-05T17:11:31.387Z,17.55
2023-01-05T17:13:59.143Z,14.73
2023-01-05T17:16:26.967Z,13.48
2023-01-05T17:18:54.765Z,16.10
2023-01-05T17:21:24.983Z,13.73
2023-01-05T17:23:54.895Z,14.32
2023-01-05T17:26:25.615Z,30.48
2023-01-05T17:28:59.940Z,18.00
2023-01-05T17:31:28.021Z,14.40
2023-01-05T17:33:56.023Z,12.25
2023-01-05T17:36:28.156Z,13.52
2023-01-05T17:38:55.832Z,19.42
2023-01-05T17:41:23.647Z,12.38
2023-01-05T17:43:51.532Z,15.18
2023-01-05T17:46:23.271Z,20.85
2023-01-05T17:48:51.088Z,13.82
2023-01-05T17:51:19.029Z,16.70
2023-01-05T17:53:46.776Z,17.42
2023-01-05T17:56:15.282Z,17.65
2023-01-05T17:58:44.050Z,13.68
2023-01-05T18:01:11.804Z,15.98
2023-01-05T18:03:40.899Z,12.23
2023-01-05T18:06:09.274Z,15.05
2023-01-05T18:08:38.155Z,15.85
2023-01-05T18:11:07.435Z,12.13
2023-01-05T18:13:36.119Z,14.43
2023-01-05T18:16:07.627Z,19.00
2023-01-05T18:18:35.328Z,15.35
2023-01-05T18:21:05.652Z,14.20
2023-01-05T18:23:34.033Z,12.60
2023-01-05T18:26:05.849Z,15.02
2023-01-05T18:28:33.729Z,13.48
2023-01-05T18:31:01.847Z,15.05
2023-01-05T18:33:29.564Z,15.48
2023-01-05T18:38:31.180Z,15.93
2023-01-05T18:40:58.906Z,16.75
2023-01-05T18:43:26.889Z,10.20
2023-01-05T18:45:55.693Z,14.48
2023-01-05T18:48:24.099Z,11.15
2023-01-05T18:50:52.438Z,14.98
2023-01-05T18:53:21.383Z,16.63
2023-01-05T18:55:50.952Z,15.48
2023-01-05T18:58:18.690Z,10.13
2023-01-05T19:00:47.177Z,12.40
2023-01-05T19:03:15.317Z,10.75
2023-01-05T19:05:44.791Z,10.82
2023-01-05T19:08:14.096Z,10.27
2023-01-05T19:10:41.929Z,12.25
2023-01-05T19:13:11.069Z,13.95
2023-01-05T19:15:39.184Z,14.27
2023-01-05T19:18:07.102Z,15.43
2023-01-05T19:20:34.834Z,14.65
2023-01-05T19:23:02.532Z,13.05
2023-01-05T19:25:31.018Z,19.15
2023-01-05T19:28:01.258Z,24.55
2023-01-05T19:30:31.633Z,21.33
2023-01-05T19:33:01.032Z,18.98
2023-01-05T19:35:30.258Z,15.13
2023-01-05T19:37:58.073Z,13.23
2023-01-05T19:40:25.834Z,13.77
2023-01-05T19:42:53.698Z,12.60
2023-01-05T19:45:21.507Z,26.17
2023-01-05T19:47:50.746Z,12.43
2023-01-05T19:50:18.464Z,14.20
2023-01-05T19:52:46.168Z,12.43
2023-01-05T19:55:13.864Z,13.52
2023-01-05T19:57:41.570Z,18.10
2023-01-05T20:00:10.488Z,10.43
2023-01-05T20:02:42.067Z,11.73
2023-01-05T20:05:11.542Z,10.13
2023-01-05T20:07:41.462Z,13.48
2023-01-05T20:10:09.996Z,15.02
2023-01-05T20:12:38.093Z,13.38
2023-01-05T20:15:06.612Z,9.63
2023-01-05T20:17:34.317Z,13.50
2023-01-05T20:20:01.968Z,11.48
2023-01-05T20:22:30.953Z,17.00
2023-01-05T20:24:58.765Z,13.57
2023-01-05T20:27:26.490Z,16.70
2023-01-05T20:29:54.236Z,8.50
2023-01-05T20:32:24.061Z,11.25
2023-01-05T20:34:55.086Z,14.60
2023-01-05T20:37:23.533Z,9.57
2023-01-05T20:39:55.723Z,13.70
2023-01-05T20:42:23.849Z,9.32
2023-01-05T20:44:51.848Z,13.05
2023-01-05T20:47:19.669Z,9.52
2023-01-05T20:49:48.296Z,14.98
2023-01-05T20:52:17.473Z,15.23
2023-01-05T20:54:45.244Z,9.85
2023-01-05T20:57:14.284Z,8.20
2023-01-05T20:59:42.041Z,11.38
2023-01-05T21:02:23.081Z,10.55
2023-01-05T21:04:52.090Z,8.60
2023-01-05T21:07:20.218Z,7.28
2023-01-05T21:09:48.152Z,6.95
2023-01-05T21:12:17.329Z,8.90
2023-01-05T21:14:45.216Z,6.30
2023-01-05T21:17:12.932Z,8.20
2023-01-05T21:19:40.596Z,5.80
2023-01-05T21:22:08.349Z,6.90
2023-01-05T21:24:36.140Z,8.82
2023-01-05T21:27:03.851Z,5.30
2023-01-05T21:29:33.012Z,8.10
2023-01-05T21:32:00.665Z,6.05
2023-01-05T21:34:28.476Z,3.00
2023-01-05T21:36:56.510Z,6.78
2023-01-05T21:39:25.883Z,4.90
2023-01-05T21:42:12.427Z,7.90
2023-01-05T21:44:42.029Z,6.53
2023-01-05T21:47:10.289Z,4.35
2023-01-05T21:49:38.133Z,5.28
2023-01-05T21:52:23.961Z,6.18
2023-01-05T21:55:09.111Z,7.22
2023-01-05T21:57:37.108Z,5.35
2023-01-05T22:00:08.552Z,7.97
2023-01-05T22:02:36.661Z,6.50
2023-01-05T22:05:04.777Z,8.23
2023-01-05T22:07:32.601Z,6.07
2023-01-05T22:10:00.275Z,5.95
2023-01-05T22:12:27.933Z,6.03
2023-01-05T22:14:55.663Z,6.93
2023-01-05T22:17:24.797Z,25.63
2023-01-05T22:19:53.280Z,13.68
2023-01-05T22:22:21.142Z,6.43
2023-01-05T22:24:49.026Z,5.72
2023-01-05T22:27:16.840Z,6.30
2023-01-05T22:29:44.524Z,3.75
2023-01-05T22:32:12.248Z,7.82
2023-01-05T22:34:43.809Z,5.90
2023-01-05T22:37:11.602Z,5.65
2023-01-05T22:39:39.340Z,6.13
2023-01-05T22:42:07.076Z,5.65
2023-01-05T22:44:34.853Z,5.60
2023-01-05T22:47:02.549Z,6.50
2023-01-05T22:49:30.610Z,7.32
2023-01-05T22:51:59.781Z,4.88
2023-01-05T22:54:27.419Z,5.25
2023-01-05T22:56:55.116Z,5.50
2023-01-05T22:59:22.799Z,6.15
2023-01-05T23:01:50.422Z,6.45
2023-01-05T23:04:19.359Z,4.45
2023-01-05T23:06:46.975Z,4.80
2023-01-05T23:09:17.461Z,7.25
2023-01-05T23:11:46.759Z,4.88
2023-01-05T23:14:17.526Z,4.68
2023-01-05T23:16:45.610Z,6.43
2023-01-05T23:19:14.933Z,7.53
2023-01-05T23:21:42.628Z,4.57
2023-01-05T23:24:10.465Z,4.80
2023-01-05T23:26:39.655Z,6.70
2023-01-05T23:29:07.350Z,4.80
2023-01-05T23:31:34.992Z,3.83
2023-01-05T23:34:02.778Z,6.85
2023-01-05T23:36:30.428Z,6.28
2023-01-05T23:38:58.099Z,3.38
2023-01-05T23:41:25.726Z,4.32
2023-01-05T23:43:54.877Z,6.97
2023-01-05T23:46:23.445Z,7.13
2023-01-05T23:48:52.524Z,5.45
2023-01-05T23:51:20.630Z,6.90
2023-01-05T23:53:50.792Z,6.22
2023-01-05T23:56:20.762Z,7.03
2023-01-05T23:58:48.991Z,6.80
